sensor_id;sensor_type;location;lat;lon;timestamp;P1;durP1;ratioP1;P2;durP2;ratioP2
24259;SDS011;12384;48.112;18.418;2022-12-22T00:01:00;54.17;;;31.93;;
24259;SDS011;12384;48.112;18.418;2022-12-22T00:03:47;53.90;;;31.10;;
24259;SDS011;12384;48.112;18.418;2022-12-22T00:06:34;47.40;;;31.17;;
24259;SDS011;12384;48.112;18.418;2022-12-22T00:09:20;51.80;;;29.87;;
24259;SDS011;12384;48.112;18.418;2022-12-22T00:12:07;49.53;;;31.73;;
24259;SDS011;12384;48.112;18.418;2022-12-22T00:14:53;60.40;;;34.73;;
24259;SDS011;12384;48.112;18.418;2022-12-22T00:17:39;53.77;;;30.07;;
24259;SDS011;12384;48.112;18.418;2022-12-22T00:20:25;57.47;;;32.97;;
24259;SDS011;12384;48.112;18.418;2022-12-22T00:23:12;47.83;;;31.13;;
24259;SDS011;12384;48.112;18.418;2022-12-22T00:25:59;46.60;;;29.77;;
24259;SDS011;12384;48.112;18.418;2022-12-22T00:28:44;44.57;;;27.40;;
24259;SDS011;12384;48.112;18.418;2022-12-22T00:31:31;54.63;;;32.43;;
24259;SDS011;12384;48.112;18.418;2022-12-22T00:34:18;52.13;;;29.67;;
24259;SDS011;12384;48.112;18.418;2022-12-22T00:37:07;52.00;;;29.90;;
24259;SDS011;12384;48.112;18.418;2022-12-22T00:39:56;41.97;;;25.83;;
24259;SDS011;12384;48.112;18.418;2022-12-22T00:42:43;44.97;;;28.60;;
24259;SDS011;12384;48.112;18.418;2022-12-22T00:45:28;41.67;;;27.90;;
24259;SDS011;12384;48.112;18.418;2022-12-22T00:48:18;46.83;;;28.70;;
24259;SDS011;12384;48.112;18.418;2022-12-22T00:51:06;40.13;;;26.90;;
24259;SDS011;12384;48.112;18.418;2022-12-22T00:53:52;40.07;;;27.43;;
24259;SDS011;12384;48.112;18.418;2022-12-22T00:56:40;53.70;;;30.50;;
24259;SDS011;12384;48.112;18.418;2022-12-22T00:59:26;37.47;;;25.33;;
24259;SDS011;12384;48.112;18.418;2022-12-22T01:02:12;44.27;;;29.10;;
24259;SDS011;12384;48.112;18.418;2022-12-22T01:04:59;46.73;;;28.63;;
24259;SDS011;12384;48.112;18.418;2022-12-22T01:07:44;50.17;;;30.03;;
24259;SDS011;12384;48.112;18.418;2022-12-22T01:10:30;48.00;;;30.33;;
24259;SDS011;12384;48.112;18.418;2022-12-22T01:13:18;41.83;;;27.87;;
24259;SDS011;12384;48.112;18.418;2022-12-22T01:16:05;45.63;;;28.63;;
24259;SDS011;12384;48.112;18.418;2022-12-22T01:18:54;45.67;;;29.30;;
24259;SDS011;12384;48.112;18.418;2022-12-22T01:21:40;46.27;;;27.97;;
24259;SDS011;12384;48.112;18.418;2022-12-22T01:24:26;42.80;;;27.53;;
24259;SDS011;12384;48.112;18.418;2022-12-22T01:27:14;44.23;;;26.70;;
24259;SDS011;12384;48.112;18.418;2022-12-22T01:30:01;37.47;;;25.07;;
24259;SDS011;12384;48.112;18.418;2022-12-22T01:32:47;46.47;;;28.10;;
24259;SDS011;12384;48.112;18.418;2022-12-22T01:35:33;57.80;;;32.53;;
24259;SDS011;12384;48.112;18.418;2022-12-22T01:38:20;45.23;;;29.10;;
24259;SDS011;12384;48.112;18.418;2022-12-22T01:41:08;50.90;;;29.10;;
24259;SDS011;12384;48.112;18.418;2022-12-22T01:43:57;44.07;;;27.33;;
24259;SDS011;12384;48.112;18.418;2022-12-22T01:46:45;44.73;;;29.20;;
24259;SDS011;12384;48.112;18.418;2022-12-22T01:49:32;56.90;;;32.03;;
24259;SDS011;12384;48.112;18.418;2022-12-22T01:52:22;48.10;;;29.47;;
24259;SDS011;12384;48.112;18.418;2022-12-22T01:55:14;54.93;;;31.37;;
24259;SDS011;12384;48.112;18.418;2022-12-22T01:58:02;45.40;;;28.70;;
24259;SDS011;12384;48.112;18.418;2022-12-22T02:00:49;65.20;;;36.10;;
24259;SDS011;12384;48.112;18.418;2022-12-22T02:03:40;57.87;;;34.00;;
24259;SDS011;12384;48.112;18.418;2022-12-22T02:06:26;41.73;;;28.17;;
24259;SDS011;12384;48.112;18.418;2022-12-22T02:09:27;63.47;;;37.90;;
24259;SDS011;12384;48.112;18.418;2022-12-22T02:12:22;53.97;;;32.57;;
24259;SDS011;12384;48.112;18.418;2022-12-22T02:15:17;53.37;;;33.80;;
24259;SDS011;12384;48.112;18.418;2022-12-22T02:18:09;53.00;;;33.60;;
24259;SDS011;12384;48.112;18.418;2022-12-22T02:21:01;47.57;;;30.67;;
24259;SDS011;12384;48.112;18.418;2022-12-22T02:23:57;47.10;;;30.40;;
24259;SDS011;12384;48.112;18.418;2022-12-22T02:26:54;48.27;;;30.57;;
24259;SDS011;12384;48.112;18.418;2022-12-22T02:29:46;58.83;;;34.47;;
24259;SDS011;12384;48.112;18.418;2022-12-22T02:32:37;49.83;;;32.03;;
24259;SDS011;12384;48.112;18.418;2022-12-22T02:35:35;49.67;;;33.00;;
24259;SDS011;12384;48.112;18.418;2022-12-22T02:38:29;47.90;;;30.50;;
24259;SDS011;12384;48.112;18.418;2022-12-22T02:41:26;44.13;;;29.50;;
24259;SDS011;12384;48.112;18.418;2022-12-22T02:44:24;46.53;;;30.17;;
24259;SDS011;12384;48.112;18.418;2022-12-22T02:47:22;46.20;;;28.97;;
24259;SDS011;12384;48.112;18.418;2022-12-22T02:50:15;79.20;;;42.10;;
24259;SDS011;12384;48.112;18.418;2022-12-22T02:53:05;50.37;;;31.70;;
24259;SDS011;12384;48.112;18.418;2022-12-22T02:55:56;63.57;;;36.13;;
24259;SDS011;12384;48.112;18.418;2022-12-22T02:58:44;66.07;;;36.57;;
24259;SDS011;12384;48.112;18.418;2022-12-22T03:01:31;55.30;;;33.37;;
24259;SDS011;12384;48.112;18.418;2022-12-22T03:04:17;55.07;;;31.83;;
24259;SDS011;12384;48.112;18.418;2022-12-22T03:07:03;54.80;;;33.57;;
24259;SDS011;12384;48.112;18.418;2022-12-22T03:09:49;55.73;;;34.17;;
24259;SDS011;12384;48.112;18.418;2022-12-22T03:12:35;68.47;;;36.20;;
24259;SDS011;12384;48.112;18.418;2022-12-22T03:15:21;79.00;;;40.70;;
24259;SDS011;12384;48.112;18.418;2022-12-22T03:18:09;61.53;;;35.37;;
24259;SDS011;12384;48.112;18.418;2022-12-22T03:20:56;56.10;;;33.97;;
24259;SDS011;12384;48.112;18.418;2022-12-22T03:23:42;65.50;;;35.90;;
24259;SDS011;12384;48.112;18.418;2022-12-22T03:26:28;51.93;;;32.77;;
24259;SDS011;12384;48.112;18.418;2022-12-22T03:28:58;56.47;;;33.57;;
24259;SDS011;12384;48.112;18.418;2022-12-22T03:31:27;55.43;;;32.50;;
24259;SDS011;12384;48.112;18.418;2022-12-22T03:33:57;51.60;;;30.57;;
24259;SDS011;12384;48.112;18.418;2022-12-22T03:36:25;65.07;;;37.33;;
24259;SDS011;12384;48.112;18.418;2022-12-22T03:38:53;77.93;;;40.53;;
24259;SDS011;12384;48.112;18.418;2022-12-22T03:41:22;73.77;;;40.43;;
24259;SDS011;12384;48.112;18.418;2022-12-22T03:44:08;50.03;;;31.87;;
24259;SDS011;12384;48.112;18.418;2022-12-22T03:46:53;45.43;;;28.53;;
24259;SDS011;12384;48.112;18.418;2022-12-22T03:49:23;49.03;;;29.13;;
24259;SDS011;12384;48.112;18.418;2022-12-22T03:51:52;42.97;;;28.27;;
24259;SDS011;12384;48.112;18.418;2022-12-22T03:54:21;41.47;;;26.50;;
24259;SDS011;12384;48.112;18.418;2022-12-22T03:56:52;46.53;;;29.53;;
24259;SDS011;12384;48.112;18.418;2022-12-22T03:59:20;48.47;;;30.53;;
24259;SDS011;12384;48.112;18.418;2022-12-22T04:01:49;58.87;;;32.97;;
24259;SDS011;12384;48.112;18.418;2022-12-22T04:04:21;49.80;;;29.97;;
24259;SDS011;12384;48.112;18.418;2022-12-22T04:06:52;50.53;;;31.60;;
24259;SDS011;12384;48.112;18.418;2022-12-22T04:09:21;51.00;;;31.57;;
24259;SDS011;12384;48.112;18.418;2022-12-22T04:11:50;61.27;;;34.40;;
24259;SDS011;12384;48.112;18.418;2022-12-22T04:14:36;60.70;;;35.23;;
24259;SDS011;12384;48.112;18.418;2022-12-22T04:17:05;50.57;;;32.27;;
24259;SDS011;12384;48.112;18.418;2022-12-22T04:19:35;53.80;;;31.30;;
24259;SDS011;12384;48.112;18.418;2022-12-22T04:22:04;55.23;;;31.80;;
24259;SDS011;12384;48.112;18.418;2022-12-22T04:24:33;59.80;;;34.97;;
24259;SDS011;12384;48.112;18.418;2022-12-22T04:27:01;50.07;;;30.43;;
24259;SDS011;12384;48.112;18.418;2022-12-22T04:29:30;43.50;;;27.93;;
24259;SDS011;12384;48.112;18.418;2022-12-22T04:31:58;50.90;;;30.33;;
24259;SDS011;12384;48.112;18.418;2022-12-22T04:34:27;49.20;;;29.77;;
24259;SDS011;12384;48.112;18.418;2022-12-22T04:36:55;49.60;;;31.53;;
24259;SDS011;12384;48.112;18.418;2022-12-22T04:39:39;62.90;;;35.87;;
24259;SDS011;12384;48.112;18.418;2022-12-22T04:42:07;50.90;;;33.20;;
24259;SDS011;12384;48.112;18.418;2022-12-22T04:44:36;58.03;;;33.87;;
24259;SDS011;12384;48.112;18.418;2022-12-22T04:47:04;59.67;;;33.97;;
24259;SDS011;12384;48.112;18.418;2022-12-22T04:49:33;54.90;;;34.37;;
24259;SDS011;12384;48.112;18.418;2022-12-22T04:52:01;80.93;;;42.77;;
24259;SDS011;12384;48.112;18.418;2022-12-22T04:54:30;69.57;;;40.10;;
24259;SDS011;12384;48.112;18.418;2022-12-22T04:56:59;80.07;;;42.47;;
24259;SDS011;12384;48.112;18.418;2022-12-22T04:59:28;68.33;;;40.47;;
24259;SDS011;12384;48.112;18.418;2022-12-22T05:01:56;67.67;;;40.63;;
24259;SDS011;12384;48.112;18.418;2022-12-22T05:04:25;61.97;;;39.40;;
24259;SDS011;12384;48.112;18.418;2022-12-22T05:06:53;60.77;;;37.07;;
24259;SDS011;12384;48.112;18.418;2022-12-22T05:09:21;56.43;;;36.70;;
24259;SDS011;12384;48.112;18.418;2022-12-22T05:11:50;56.17;;;35.73;;
24259;SDS011;12384;48.112;18.418;2022-12-22T05:14:19;62.70;;;38.63;;
24259;SDS011;12384;48.112;18.418;2022-12-22T05:16:48;53.43;;;34.27;;
24259;SDS011;12384;48.112;18.418;2022-12-22T05:19:16;59.13;;;37.13;;
24259;SDS011;12384;48.112;18.418;2022-12-22T05:21:55;57.93;;;36.80;;
24259;SDS011;12384;48.112;18.418;2022-12-22T05:24:24;53.17;;;35.20;;
24259;SDS011;12384;48.112;18.418;2022-12-22T05:26:52;60.80;;;36.50;;
24259;SDS011;12384;48.112;18.418;2022-12-22T05:29:22;56.57;;;36.07;;
24259;SDS011;12384;48.112;18.418;2022-12-22T05:31:50;54.53;;;33.70;;
24259;SDS011;12384;48.112;18.418;2022-12-22T05:34:19;55.47;;;35.03;;
24259;SDS011;12384;48.112;18.418;2022-12-22T05:36:47;46.63;;;31.87;;
24259;SDS011;12384;48.112;18.418;2022-12-22T05:39:15;48.70;;;31.17;;
24259;SDS011;12384;48.112;18.418;2022-12-22T05:41:45;48.63;;;32.00;;
24259;SDS011;12384;48.112;18.418;2022-12-22T05:44:13;59.70;;;36.60;;
24259;SDS011;12384;48.112;18.418;2022-12-22T05:46:43;47.90;;;32.03;;
24259;SDS011;12384;48.112;18.418;2022-12-22T05:49:11;44.03;;;29.80;;
24259;SDS011;12384;48.112;18.418;2022-12-22T05:51:39;49.90;;;31.67;;
24259;SDS011;12384;48.112;18.418;2022-12-22T05:54:08;55.70;;;35.10;;
24259;SDS011;12384;48.112;18.418;2022-12-22T05:56:36;52.60;;;33.33;;
24259;SDS011;12384;48.112;18.418;2022-12-22T05:59:05;57.57;;;35.03;;
24259;SDS011;12384;48.112;18.418;2022-12-22T06:01:33;55.13;;;36.93;;
24259;SDS011;12384;48.112;18.418;2022-12-22T06:04:03;46.97;;;31.70;;
24259;SDS011;12384;48.112;18.418;2022-12-22T06:06:31;51.70;;;34.63;;
24259;SDS011;12384;48.112;18.418;2022-12-22T06:09:00;47.77;;;32.57;;
24259;SDS011;12384;48.112;18.418;2022-12-22T06:11:28;45.50;;;32.23;;
24259;SDS011;12384;48.112;18.418;2022-12-22T06:13:56;57.73;;;35.33;;
24259;SDS011;12384;48.112;18.418;2022-12-22T06:16:25;53.83;;;35.60;;
24259;SDS011;12384;48.112;18.418;2022-12-22T06:18:53;55.30;;;35.53;;
24259;SDS011;12384;48.112;18.418;2022-12-22T06:21:23;66.17;;;39.50;;
24259;SDS011;12384;48.112;18.418;2022-12-22T06:23:51;68.63;;;42.53;;
24259;SDS011;12384;48.112;18.418;2022-12-22T06:26:20;53.03;;;34.83;;
24259;SDS011;12384;48.112;18.418;2022-12-22T06:28:48;59.27;;;36.80;;
24259;SDS011;12384;48.112;18.418;2022-12-22T06:31:17;62.40;;;39.80;;
24259;SDS011;12384;48.112;18.418;2022-12-22T06:33:45;65.43;;;39.63;;
24259;SDS011;12384;48.112;18.418;2022-12-22T06:36:14;64.27;;;39.63;;
24259;SDS011;12384;48.112;18.418;2022-12-22T06:38:43;63.57;;;39.17;;
24259;SDS011;12384;48.112;18.418;2022-12-22T06:41:12;65.83;;;40.37;;
24259;SDS011;12384;48.112;18.418;2022-12-22T06:43:40;63.13;;;39.67;;
24259;SDS011;12384;48.112;18.418;2022-12-22T06:46:07;69.47;;;41.80;;
24259;SDS011;12384;48.112;18.418;2022-12-22T06:48:36;57.03;;;38.10;;
24259;SDS011;12384;48.112;18.418;2022-12-22T06:51:04;67.03;;;43.10;;
24259;SDS011;12384;48.112;18.418;2022-12-22T06:53:33;61.20;;;39.00;;
24259;SDS011;12384;48.112;18.418;2022-12-22T06:56:02;65.13;;;38.13;;
24259;SDS011;12384;48.112;18.418;2022-12-22T06:58:31;53.87;;;36.53;;
24259;SDS011;12384;48.112;18.418;2022-12-22T07:00:59;55.27;;;38.37;;
24259;SDS011;12384;48.112;18.418;2022-12-22T07:03:28;53.60;;;36.17;;
24259;SDS011;12384;48.112;18.418;2022-12-22T07:05:56;58.33;;;37.60;;
24259;SDS011;12384;48.112;18.418;2022-12-22T07:08:25;61.70;;;37.47;;
24259;SDS011;12384;48.112;18.418;2022-12-22T07:10:53;52.80;;;36.13;;
24259;SDS011;12384;48.112;18.418;2022-12-22T07:13:26;60.00;;;38.67;;
24259;SDS011;12384;48.112;18.418;2022-12-22T07:15:57;63.80;;;40.30;;
24259;SDS011;12384;48.112;18.418;2022-12-22T07:18:28;60.37;;;39.10;;
24259;SDS011;12384;48.112;18.418;2022-12-22T07:20:58;63.70;;;39.83;;
24259;SDS011;12384;48.112;18.418;2022-12-22T07:23:27;63.53;;;40.30;;
24259;SDS011;12384;48.112;18.418;2022-12-22T07:25:56;61.47;;;39.53;;
24259;SDS011;12384;48.112;18.418;2022-12-22T07:28:26;56.67;;;37.90;;
24259;SDS011;12384;48.112;18.418;2022-12-22T07:30:55;59.37;;;39.33;;
24259;SDS011;12384;48.112;18.418;2022-12-22T07:33:23;60.73;;;38.90;;
24259;SDS011;12384;48.112;18.418;2022-12-22T07:36:02;61.63;;;37.17;;
24259;SDS011;12384;48.112;18.418;2022-12-22T07:38:33;55.40;;;35.93;;
24259;SDS011;12384;48.112;18.418;2022-12-22T07:41:03;61.77;;;39.70;;
24259;SDS011;12384;48.112;18.418;2022-12-22T07:43:54;52.80;;;34.87;;
24259;SDS011;12384;48.112;18.418;2022-12-22T07:46:23;58.93;;;37.63;;
24259;SDS011;12384;48.112;18.418;2022-12-22T07:48:52;53.30;;;35.77;;
24259;SDS011;12384;48.112;18.418;2022-12-22T07:51:39;51.97;;;36.03;;
24259;SDS011;12384;48.112;18.418;2022-12-22T07:54:09;58.93;;;37.40;;
24259;SDS011;12384;48.112;18.418;2022-12-22T07:56:40;60.60;;;37.60;;
24259;SDS011;12384;48.112;18.418;2022-12-22T07:59:10;53.43;;;35.47;;
24259;SDS011;12384;48.112;18.418;2022-12-22T08:01:39;58.70;;;38.53;;
24259;SDS011;12384;48.112;18.418;2022-12-22T08:04:08;52.87;;;37.10;;
24259;SDS011;12384;48.112;18.418;2022-12-22T08:06:36;57.87;;;38.57;;
24259;SDS011;12384;48.112;18.418;2022-12-22T08:09:05;56.03;;;38.77;;
24259;SDS011;12384;48.112;18.418;2022-12-22T08:11:35;58.23;;;39.97;;
24259;SDS011;12384;48.112;18.418;2022-12-22T08:14:03;60.90;;;38.40;;
24259;SDS011;12384;48.112;18.418;2022-12-22T08:16:33;58.03;;;38.60;;
24259;SDS011;12384;48.112;18.418;2022-12-22T08:19:01;61.47;;;39.23;;
24259;SDS011;12384;48.112;18.418;2022-12-22T08:21:29;60.40;;;38.13;;
24259;SDS011;12384;48.112;18.418;2022-12-22T08:23:58;57.83;;;37.93;;
24259;SDS011;12384;48.112;18.418;2022-12-22T08:26:28;56.93;;;37.93;;
24259;SDS011;12384;48.112;18.418;2022-12-22T08:29:01;54.97;;;36.07;;
24259;SDS011;12384;48.112;18.418;2022-12-22T08:31:35;52.60;;;35.27;;
24259;SDS011;12384;48.112;18.418;2022-12-22T08:34:05;49.53;;;33.80;;
24259;SDS011;12384;48.112;18.418;2022-12-22T08:36:36;56.70;;;35.80;;
24259;SDS011;12384;48.112;18.418;2022-12-22T08:39:07;57.77;;;38.33;;
24259;SDS011;12384;48.112;18.418;2022-12-22T08:41:37;62.90;;;39.77;;
24259;SDS011;12384;48.112;18.418;2022-12-22T08:44:19;61.60;;;39.90;;
24259;SDS011;12384;48.112;18.418;2022-12-22T08:46:50;60.77;;;39.33;;
24259;SDS011;12384;48.112;18.418;2022-12-22T08:49:20;58.20;;;37.87;;
24259;SDS011;12384;48.112;18.418;2022-12-22T08:51:49;57.67;;;37.00;;
24259;SDS011;12384;48.112;18.418;2022-12-22T08:54:18;56.63;;;35.97;;
24259;SDS011;12384;48.112;18.418;2022-12-22T08:56:47;61.77;;;37.83;;
24259;SDS011;12384;48.112;18.418;2022-12-22T08:59:16;55.63;;;36.43;;
24259;SDS011;12384;48.112;18.418;2022-12-22T09:01:44;55.57;;;36.20;;
24259;SDS011;12384;48.112;18.418;2022-12-22T09:04:19;60.07;;;37.07;;
24259;SDS011;12384;48.112;18.418;2022-12-22T09:06:50;52.97;;;36.30;;
24259;SDS011;12384;48.112;18.418;2022-12-22T09:09:19;52.97;;;36.10;;
24259;SDS011;12384;48.112;18.418;2022-12-22T09:11:48;53.03;;;35.40;;
24259;SDS011;12384;48.112;18.418;2022-12-22T09:14:16;52.67;;;34.63;;
24259;SDS011;12384;48.112;18.418;2022-12-22T09:16:45;51.20;;;35.53;;
24259;SDS011;12384;48.112;18.418;2022-12-22T09:19:13;50.73;;;34.70;;
24259;SDS011;12384;48.112;18.418;2022-12-22T09:21:43;48.67;;;36.00;;
24259;SDS011;12384;48.112;18.418;2022-12-22T09:24:12;53.80;;;35.13;;
24259;SDS011;12384;48.112;18.418;2022-12-22T09:26:40;49.70;;;35.33;;
24259;SDS011;12384;48.112;18.418;2022-12-22T09:29:09;53.10;;;36.53;;
24259;SDS011;12384;48.112;18.418;2022-12-22T09:31:40;54.40;;;35.27;;
24259;SDS011;12384;48.112;18.418;2022-12-22T09:34:09;50.17;;;34.23;;
24259;SDS011;12384;48.112;18.418;2022-12-22T09:36:45;46.57;;;33.70;;
24259;SDS011;12384;48.112;18.418;2022-12-22T09:39:14;50.27;;;33.50;;
24259;SDS011;12384;48.112;18.418;2022-12-22T09:41:49;44.67;;;32.03;;
24259;SDS011;12384;48.112;18.418;2022-12-22T09:44:22;46.50;;;33.57;;
24259;SDS011;12384;48.112;18.418;2022-12-22T09:46:53;50.60;;;33.87;;
24259;SDS011;12384;48.112;18.418;2022-12-22T09:49:24;50.83;;;34.97;;
24259;SDS011;12384;48.112;18.418;2022-12-22T09:51:55;50.07;;;34.60;;
24259;SDS011;12384;48.112;18.418;2022-12-22T09:54:26;50.50;;;35.10;;
24259;SDS011;12384;48.112;18.418;2022-12-22T09:56:56;52.33;;;35.03;;
24259;SDS011;12384;48.112;18.418;2022-12-22T09:59:26;46.37;;;34.33;;
24259;SDS011;12384;48.112;18.418;2022-12-22T10:02:02;52.00;;;35.97;;
24259;SDS011;12384;48.112;18.418;2022-12-22T10:04:52;50.90;;;35.53;;
24259;SDS011;12384;48.112;18.418;2022-12-22T10:07:33;47.93;;;35.50;;
24259;SDS011;12384;48.112;18.418;2022-12-22T10:10:05;47.47;;;34.43;;
24259;SDS011;12384;48.112;18.418;2022-12-22T10:12:34;46.93;;;34.87;;
24259;SDS011;12384;48.112;18.418;2022-12-22T10:15:04;46.60;;;34.60;;
24259;SDS011;12384;48.112;18.418;2022-12-22T10:17:45;52.40;;;37.47;;
24259;SDS011;12384;48.112;18.418;2022-12-22T10:20:21;46.10;;;34.20;;
24259;SDS011;12384;48.112;18.418;2022-12-22T10:22:53;47.67;;;34.53;;
24259;SDS011;12384;48.112;18.418;2022-12-22T10:25:26;48.07;;;36.40;;
24259;SDS011;12384;48.112;18.418;2022-12-22T10:28:20;53.93;;;39.93;;
24259;SDS011;12384;48.112;18.418;2022-12-22T10:30:54;57.53;;;41.30;;
24259;SDS011;12384;48.112;18.418;2022-12-22T10:33:38;49.13;;;37.30;;
24259;SDS011;12384;48.112;18.418;2022-12-22T10:36:12;50.37;;;37.77;;
24259;SDS011;12384;48.112;18.418;2022-12-22T10:38:53;57.63;;;39.27;;
24259;SDS011;12384;48.112;18.418;2022-12-22T10:41:25;53.70;;;39.30;;
24259;SDS011;12384;48.112;18.418;2022-12-22T10:43:56;48.20;;;36.17;;
24259;SDS011;12384;48.112;18.418;2022-12-22T10:46:29;50.57;;;36.10;;
24259;SDS011;12384;48.112;18.418;2022-12-22T10:49:11;46.30;;;35.50;;
24259;SDS011;12384;48.112;18.418;2022-12-22T10:51:43;50.73;;;37.70;;
24259;SDS011;12384;48.112;18.418;2022-12-22T10:54:31;46.07;;;34.50;;
24259;SDS011;12384;48.112;18.418;2022-12-22T10:57:03;51.43;;;37.10;;
24259;SDS011;12384;48.112;18.418;2022-12-22T10:59:35;50.07;;;35.40;;
24259;SDS011;12384;48.112;18.418;2022-12-22T11:02:23;53.17;;;38.07;;
24259;SDS011;12384;48.112;18.418;2022-12-22T11:04:59;58.53;;;38.77;;
24259;SDS011;12384;48.112;18.418;2022-12-22T11:07:31;52.17;;;37.57;;
24259;SDS011;12384;48.112;18.418;2022-12-22T11:10:06;46.20;;;33.00;;
24259;SDS011;12384;48.112;18.418;2022-12-22T11:12:48;45.30;;;33.10;;
24259;SDS011;12384;48.112;18.418;2022-12-22T11:15:30;41.57;;;31.90;;
24259;SDS011;12384;48.112;18.418;2022-12-22T11:18:11;42.30;;;30.97;;
24259;SDS011;12384;48.112;18.418;2022-12-22T11:20:50;41.63;;;30.03;;
24259;SDS011;12384;48.112;18.418;2022-12-22T11:23:30;50.30;;;35.40;;
24259;SDS011;12384;48.112;18.418;2022-12-22T11:26:07;51.83;;;37.87;;
24259;SDS011;12384;48.112;18.418;2022-12-22T11:28:58;38.57;;;31.90;;
24259;SDS011;12384;48.112;18.418;2022-12-22T11:31:43;43.47;;;31.30;;
24259;SDS011;12384;48.112;18.418;2022-12-22T11:34:23;43.00;;;33.27;;
24259;SDS011;12384;48.112;18.418;2022-12-22T11:37:04;51.77;;;36.23;;
24259;SDS011;12384;48.112;18.418;2022-12-22T11:39:43;45.67;;;33.13;;
24259;SDS011;12384;48.112;18.418;2022-12-22T11:42:31;51.83;;;36.13;;
24259;SDS011;12384;48.112;18.418;2022-12-22T11:45:18;41.40;;;32.13;;
24259;SDS011;12384;48.112;18.418;2022-12-22T11:48:13;48.40;;;35.97;;
24259;SDS011;12384;48.112;18.418;2022-12-22T11:51:01;49.07;;;36.73;;
24259;SDS011;12384;48.112;18.418;2022-12-22T11:53:47;52.87;;;37.37;;
24259;SDS011;12384;48.112;18.418;2022-12-22T11:56:37;56.40;;;40.47;;
24259;SDS011;12384;48.112;18.418;2022-12-22T11:59:13;56.50;;;40.07;;
24259;SDS011;12384;48.112;18.418;2022-12-22T12:02:01;55.27;;;39.93;;
24259;SDS011;12384;48.112;18.418;2022-12-22T12:07:45;58.43;;;42.33;;
24259;SDS011;12384;48.112;18.418;2022-12-22T12:10:19;62.20;;;45.13;;
24259;SDS011;12384;48.112;18.418;2022-12-22T12:12:54;65.77;;;43.60;;
24259;SDS011;12384;48.112;18.418;2022-12-22T12:15:30;60.50;;;43.80;;
24259;SDS011;12384;48.112;18.418;2022-12-22T12:18:14;64.23;;;43.83;;
24259;SDS011;12384;48.112;18.418;2022-12-22T12:21:07;63.37;;;43.30;;
24259;SDS011;12384;48.112;18.418;2022-12-22T12:23:59;60.90;;;41.43;;
24259;SDS011;12384;48.112;18.418;2022-12-22T12:26:43;58.77;;;41.20;;
24259;SDS011;12384;48.112;18.418;2022-12-22T12:29:19;62.87;;;40.90;;
24259;SDS011;12384;48.112;18.418;2022-12-22T12:31:54;60.90;;;42.40;;
24259;SDS011;12384;48.112;18.418;2022-12-22T12:34:28;60.97;;;42.20;;
24259;SDS011;12384;48.112;18.418;2022-12-22T12:37:01;58.67;;;38.93;;
24259;SDS011;12384;48.112;18.418;2022-12-22T12:39:35;59.63;;;40.20;;
24259;SDS011;12384;48.112;18.418;2022-12-22T12:42:11;59.27;;;41.67;;
24259;SDS011;12384;48.112;18.418;2022-12-22T12:44:48;66.83;;;43.47;;
24259;SDS011;12384;48.112;18.418;2022-12-22T12:47:26;63.60;;;42.20;;
24259;SDS011;12384;48.112;18.418;2022-12-22T12:53:03;62.63;;;42.73;;
24259;SDS011;12384;48.112;18.418;2022-12-22T13:17:32;57.43;;;38.60;;
24259;SDS011;12384;48.112;18.418;2022-12-22T13:20:10;48.67;;;35.40;;
24259;SDS011;12384;48.112;18.418;2022-12-22T13:22:44;47.60;;;36.07;;
24259;SDS011;12384;48.112;18.418;2022-12-22T13:25:18;50.73;;;36.50;;
24259;SDS011;12384;48.112;18.418;2022-12-22T13:27:49;50.20;;;36.57;;
24259;SDS011;12384;48.112;18.418;2022-12-22T13:30:19;53.43;;;36.03;;
24259;SDS011;12384;48.112;18.418;2022-12-22T13:32:48;54.60;;;37.07;;
24259;SDS011;12384;48.112;18.418;2022-12-22T13:35:18;51.23;;;37.70;;
24259;SDS011;12384;48.112;18.418;2022-12-22T13:38:00;49.73;;;36.30;;
24259;SDS011;12384;48.112;18.418;2022-12-22T13:40:29;54.67;;;37.03;;
24259;SDS011;12384;48.112;18.418;2022-12-22T13:43:01;49.03;;;35.43;;
24259;SDS011;12384;48.112;18.418;2022-12-22T13:45:32;51.13;;;35.07;;
24259;SDS011;12384;48.112;18.418;2022-12-22T13:48:05;52.10;;;36.70;;
24259;SDS011;12384;48.112;18.418;2022-12-22T13:50:40;49.90;;;37.23;;
24259;SDS011;12384;48.112;18.418;2022-12-22T13:53:14;53.23;;;37.37;;
24259;SDS011;12384;48.112;18.418;2022-12-22T13:56:06;52.30;;;36.63;;
24259;SDS011;12384;48.112;18.418;2022-12-22T13:58:41;49.10;;;36.10;;
24259;SDS011;12384;48.112;18.418;2022-12-22T14:01:13;53.43;;;37.57;;
24259;SDS011;12384;48.112;18.418;2022-12-22T14:03:45;47.90;;;34.67;;
24259;SDS011;12384;48.112;18.418;2022-12-22T14:06:27;50.97;;;35.20;;
24259;SDS011;12384;48.112;18.418;2022-12-22T14:09:13;50.93;;;36.43;;
24259;SDS011;12384;48.112;18.418;2022-12-22T14:11:46;48.50;;;33.37;;
24259;SDS011;12384;48.112;18.418;2022-12-22T14:14:21;50.47;;;37.17;;
24259;SDS011;12384;48.112;18.418;2022-12-22T14:16:53;50.10;;;38.50;;
24259;SDS011;12384;48.112;18.418;2022-12-22T14:19:23;58.53;;;39.53;;
24259;SDS011;12384;48.112;18.418;2022-12-22T14:21:58;51.27;;;38.17;;
24259;SDS011;12384;48.112;18.418;2022-12-22T14:24:32;51.77;;;37.67;;
24259;SDS011;12384;48.112;18.418;2022-12-22T14:27:05;49.17;;;38.33;;
24259;SDS011;12384;48.112;18.418;2022-12-22T14:29:40;57.90;;;38.63;;
24259;SDS011;12384;48.112;18.418;2022-12-22T14:32:34;59.03;;;41.43;;
24259;SDS011;12384;48.112;18.418;2022-12-22T14:35:23;55.37;;;40.00;;
24259;SDS011;12384;48.112;18.418;2022-12-22T14:37:55;56.50;;;41.33;;
24259;SDS011;12384;48.112;18.418;2022-12-22T14:40:42;61.27;;;41.23;;
24259;SDS011;12384;48.112;18.418;2022-12-22T14:43:24;57.30;;;40.27;;
24259;SDS011;12384;48.112;18.418;2022-12-22T14:46:04;53.87;;;38.27;;
24259;SDS011;12384;48.112;18.418;2022-12-22T14:48:35;57.17;;;41.10;;
24259;SDS011;12384;48.112;18.418;2022-12-22T14:51:05;54.60;;;39.20;;
24259;SDS011;12384;48.112;18.418;2022-12-22T14:53:41;54.53;;;37.70;;
24259;SDS011;12384;48.112;18.418;2022-12-22T14:56:12;46.63;;;32.90;;
24259;SDS011;12384;48.112;18.418;2022-12-22T14:58:43;50.83;;;36.67;;
24259;SDS011;12384;48.112;18.418;2022-12-22T15:01:16;52.37;;;37.03;;
24259;SDS011;12384;48.112;18.418;2022-12-22T15:03:56;48.93;;;36.07;;
24259;SDS011;12384;48.112;18.418;2022-12-22T15:06:32;55.53;;;36.50;;
24259;SDS011;12384;48.112;18.418;2022-12-22T15:09:07;52.07;;;36.57;;
24259;SDS011;12384;48.112;18.418;2022-12-22T15:12:13;51.13;;;37.00;;
24259;SDS011;12384;48.112;18.418;2022-12-22T15:14:44;55.27;;;36.90;;
24259;SDS011;12384;48.112;18.418;2022-12-22T15:17:18;55.60;;;37.93;;
24259;SDS011;12384;48.112;18.418;2022-12-22T15:19:48;56.97;;;37.67;;
24259;SDS011;12384;48.112;18.418;2022-12-22T15:22:18;51.20;;;36.00;;
24259;SDS011;12384;48.112;18.418;2022-12-22T15:24:46;55.20;;;36.47;;
24259;SDS011;12384;48.112;18.418;2022-12-22T15:27:15;52.77;;;37.37;;
24259;SDS011;12384;48.112;18.418;2022-12-22T15:29:43;56.53;;;37.60;;